Time;durP1;ratioP1;P1;durP2;ratioP2;P2;SDS_P1;SDS_P2;PMS_P1;PMS_P2;Temp;Humidity;BMP_temperature;BMP_pressure;BME280_temperature;BME280_humidity;BME280_pressure;Samples;Min_cycle;Max_cycle;Signal;HPM_P1;HPM_P2
2023/03/05 00:00:53;;;;;;;9.02;7.53;;;;;;;7.53;60.08;100513.59;10453129;28;20045;-69
2023/03/05 00:05:57;;;;;;;8.02;6.93;;;;;;;7.41;60.43;100496.69;10451699;28;20048;-72
2023/03/05 00:11:03;;;;;;;;;;;;;;;7.56;60.89;100505.47;10459531;28;20071;-72
2023/03/05 00:16:09;;;;;;;;;;;;;;;7.52;60.24;100506.59;10442535;28;19924;-71
2023/03/05 00:21:25;;;;;;;10.52;6.60;;;;;;;7.54;59.77;100504.72;10462073;28;19924;-71
2023/03/05 00:26:27;;;;;;;7.93;5.45;;;;;;;7.54;59.42;100499.44;10453129;28;20042;-68
2023/03/05 00:31:32;;;;;;;8.13;5.55;;;;;;;7.34;58.60;100475.06;10472292;28;20052;-71
2023/03/05 00:36:41;;;;;;;7.90;5.55;;;;;;;7.46;58.57;100486.69;10505676;28;20069;-72
2023/03/05 00:41:42;;;;;;;8.30;6.00;;;;;;;7.40;58.93;100498.50;10484771;28;20067;-73
2023/03/05 00:46:44;;;;;;;7.53;4.60;;;;;;;7.23;58.63;100488.94;10469139;28;20131;-71
2023/03/05 00:51:45;;;;;;;9.05;5.20;;;;;;;7.06;58.40;100487.38;10461319;28;20135;-68
2023/03/05 00:56:48;;;;;;;9.82;5.25;;;;;;;7.08;57.88;100485.47;10436135;28;20040;-67
2023/03/05 01:01:49;;;;;;;7.82;4.57;;;;;;;6.85;57.99;100478.13;10452647;28;20615;-70
2023/03/05 01:06:51;;;;;;;7.13;4.38;;;;;;;6.57;58.63;100463.91;10453399;28;20666;-70
2023/03/05 01:11:52;;;;;;;4.65;3.90;;;;;;;6.77;59.21;100472.44;10448598;28;20470;-71
2023/03/05 01:16:54;;;;;;;6.22;4.72;;;;;;;6.88;58.58;100477.94;10452458;28;20419;-70
2023/03/05 01:21:56;;;;;;;8.70;5.30;;;;;;;6.83;59.21;100464.13;10445046;28;20040;-72
2023/03/05 01:26:57;;;;;;;7.47;4.85;;;;;;;6.85;59.35;100467.53;10449194;28;20139;-70
2023/03/05 01:32:01;;;;;;;6.93;4.88;;;;;;;6.93;59.05;100459.97;10447628;28;20135;-71
2023/03/05 01:37:02;;;;;;;9.77;4.20;;;;;;;7.08;58.52;100461.63;10436476;28;20060;-70
2023/03/05 01:42:04;;;;;;;7.15;4.55;;;;;;;7.04;58.17;100435.47;10436618;28;20044;-72
2023/03/05 01:47:05;;;;;;;7.13;4.38;;;;;;;7.21;57.22;100452.94;10440778;28;20046;-72
2023/03/05 01:52:16;;;;;;;6.15;4.05;;;;;;;7.02;57.09;100414.38;10451536;28;20170;-70
2023/03/05 01:57:47;;;;;;;7.10;3.90;;;;;;;7.10;56.97;100426.28;10451696;28;20757;-72
2023/03/05 02:02:50;;;;;;;5.55;3.22;;;;;;;7.16;56.23;100433.84;10455737;28;20653;-69
2023/03/05 02:07:55;;;;;;;7.63;3.40;;;;;;;7.06;56.58;100437.06;10451467;28;20139;-69
2023/03/05 02:13:01;;;;;;;4.10;3.45;;;;;;;7.00;56.53;100423.38;10454274;28;20056;-69
2023/03/05 02:18:03;;;;;;;6.68;3.65;;;;;;;7.00;57.00;100420.75;10447020;28;20093;-71
2023/03/05 02:23:04;;;;;;;7.55;3.45;;;;;;;7.07;55.81;100420.25;10454391;28;20059;-69
2023/03/05 02:28:21;;;;;;;7.15;3.38;;;;;;;7.05;55.66;100400.94;10446997;28;20044;-71
2023/03/05 02:33:23;;;;;;;4.93;2.80;;;;;;;7.21;55.40;100400.00;10447463;28;20047;-73
2023/03/05 02:38:25;;;;;;;6.28;3.28;;;;;;;7.16;55.24;100383.53;10446937;28;20059;-70
2023/03/05 02:43:28;;;;;;;5.75;2.92;;;;;;;7.17;54.52;100377.31;10436715;28;20049;-70
2023/03/05 02:48:29;;;;;;;10.13;3.67;;;;;;;7.31;53.85;100395.81;10447731;28;20501;-74
2023/03/05 02:53:31;;;;;;;5.88;3.92;;;;;;;7.19;53.76;100370.09;10448380;28;20059;-70
2023/03/05 02:58:32;;;;;;;5.30;3.80;;;;;;;7.13;53.73;100375.78;10439083;28;20053;-70
2023/03/05 03:03:34;;;;;;;7.60;4.15;;;;;;;7.03;53.35;100364.97;10447169;28;20055;-73
2023/03/05 03:08:35;;;;;;;8.60;4.05;;;;;;;6.96;54.03;100356.56;10448992;28;20051;-70
2023/03/05 03:13:38;;;;;;;8.90;4.25;;;;;;;7.11;54.10;100367.13;10435581;28;20056;-74
2023/03/05 03:18:40;;;;;;;9.48;4.97;;;;;;;7.00;53.68;100347.47;10451215;28;20068;-70
2023/03/05 03:23:41;;;;;;;8.85;4.47;;;;;;;6.87;53.76;100336.81;10432946;28;20078;-68
2023/03/05 03:28:43;;;;;;;6.47;4.35;;;;;;;7.04;54.17;100366.63;10430875;28;20155;-70
2023/03/05 03:33:44;;;;;;;5.95;4.13;;;;;;;7.00;54.24;100373.94;10446176;28;20048;-70
2023/03/05 03:38:46;;;;;;;8.43;4.50;;;;;;;6.82;55.17;100367.19;10442162;28;20065;-70
2023/03/05 03:43:47;;;;;;;6.90;4.47;;;;;;;6.93;55.28;100366.50;10444459;28;22074;-70
2023/03/05 03:48:50;;;;;;;6.95;4.50;;;;;;;6.68;55.34;100349.50;10445112;28;20052;-71
2023/03/05 03:53:52;;;;;;;6.00;3.50;;;;;;;6.87;55.01;100365.06;10447717;28;20045;-71
2023/03/05 03:58:53;;;;;;;6.55;3.42;;;;;;;6.84;54.69;100349.41;10454527;28;20086;-70
2023/03/05 04:03:54;;;;;;;8.02;3.47;;;;;;;6.71;55.00;100359.88;10446404;28;20052;-70
2023/03/05 04:08:56;;;;;;;3.58;2.53;;;;;;;6.71;55.08;100350.19;10475871;28;20049;-71
2023/03/05 04:13:57;;;;;;;5.53;2.88;;;;;;;6.46;54.72;100358.78;10508181;28;20060;-69
2023/03/05 04:18:59;;;;;;;4.03;2.40;;;;;;;6.47;53.27;100351.69;10471808;28;20048;-69
2023/03/05 04:24:01;;;;;;;5.40;2.05;;;;;;;6.48;53.15;100345.47;10479518;28;20056;-72
2023/03/05 04:29:02;;;;;;;3.75;2.00;;;;;;;6.57;52.89;100358.13;10463254;28;20048;-71
2023/03/05 04:34:04;;;;;;;3.40;2.10;;;;;;;6.57;52.62;100336.94;10439186;28;20134;-72
2023/03/05 04:39:05;;;;;;;2.10;1.48;;;;;;;6.65;52.30;100350.56;10446460;28;20750;-72
2023/03/05 04:44:07;;;;;;;3.28;1.42;;;;;;;6.42;51.89;100312.31;10447939;28;20145;-71
2023/03/05 04:49:08;;;;;;;2.80;1.10;;;;;;;6.65;51.83;100344.41;10450934;28;20139;-72
2023/03/05 04:54:10;;;;;;;3.63;0.80;;;;;;;6.51;50.81;100339.97;10466063;28;20116;-70
2023/03/05 04:59:12;;;;;;;2.50;0.80;;;;;;;6.36;50.25;100324.16;10431410;28;20067;-72
2023/03/05 05:04:13;;;;;;;3.35;0.88;;;;;;;6.52;50.65;100339.03;10444520;28;20118;-72
2023/03/05 05:09:14;;;;;;;4.20;0.98;;;;;;;6.46;50.22;100319.13;10439815;28;20135;-71
2023/03/05 05:14:16;;;;;;;2.03;0.88;;;;;;;6.37;49.93;100298.53;10448209;28;20106;-72
2023/03/05 05:19:18;;;;;;;1.77;0.63;;;;;;;6.34;49.75;100304.03;10449697;28;20547;-68
2023/03/05 05:24:19;;;;;;;1.67;0.60;;;;;;;6.29;49.83;100291.09;10449849;28;20050;-70
2023/03/05 05:29:22;;;;;;;1.73;0.82;;;;;;;6.50;49.69;100306.53;10449041;28;20461;-71
2023/03/05 05:34:26;;;;;;;2.58;0.70;;;;;;;6.35;50.15;100282.78;10434996;28;20493;-72
2023/03/05 05:39:27;;;;;;;2.67;1.00;;;;;;;6.63;50.33;100304.81;10443326;28;20582;-69
2023/03/05 05:44:29;;;;;;;2.88;0.80;;;;;;;6.55;49.55;100286.81;10446291;28;20406;-70
2023/03/05 05:49:30;;;;;;;4.35;1.20;;;;;;;6.68;49.74;100294.81;10438082;28;20059;-77
2023/03/05 05:54:32;;;;;;;3.00;0.80;;;;;;;6.64;49.80;100274.78;10437862;28;20036;-75
2023/03/05 05:59:33;;;;;;;2.08;0.73;;;;;;;6.67;49.23;100285.19;10457032;28;20127;-75
2023/03/05 06:04:39;;;;;;;2.25;1.00;;;;;;;6.53;49.69;100269.31;10447711;28;20047;-75
2023/03/05 06:09:40;;;;;;;2.13;1.00;;;;;;;6.53;49.71;100246.38;10426739;28;20053;-69
2023/03/05 06:14:41;;;;;;;3.92;1.33;;;;;;;6.75;49.41;100279.38;10447528;28;20471;-71
2023/03/05 06:19:43;;;;;;;3.75;0.98;;;;;;;6.65;49.53;100254.47;10447557;28;20388;-70
2023/03/05 06:24:44;;;;;;;3.70;1.17;;;;;;;6.79;49.20;100282.72;10439749;28;20048;-70
2023/03/05 06:29:46;;;;;;;2.20;1.50;;;;;;;6.80;48.98;100279.09;10445689;28;20052;-71
2023/03/05 06:34:48;;;;;;;2.63;1.33;;;;;;;6.83;49.05;100278.91;10446686;28;20498;-71
2023/03/05 06:39:49;;;;;;;3.58;1.60;;;;;;;6.85;48.54;100284.97;10442064;28;20060;-70
2023/03/05 06:44:50;;;;;;;4.97;1.60;;;;;;;6.81;47.96;100286.09;10442845;28;20055;-71
2023/03/05 06:49:52;;;;;;;4.45;1.52;;;;;;;6.58;48.84;100254.03;10442581;28;20053;-71
2023/03/05 06:54:54;;;;;;;3.08;1.33;;;;;;;6.75;48.77;100287.31;10446268;28;20123;-71
2023/03/05 06:59:56;;;;;;;4.07;1.98;;;;;;;6.73;48.63;100284.78;10424008;28;20134;-71
2023/03/05 07:04:57;;;;;;;3.72;1.77;;;;;;;6.63;48.62;100286.31;10420266;28;20052;-71
2023/03/05 07:09:59;;;;;;;3.17;1.50;;;;;;;6.57;48.83;100286.69;10436457;28;20063;-71
2023/03/05 07:15:00;;;;;;;5.50;1.67;;;;;;;6.40;49.63;100271.06;10435704;28;20422;-71
2023/03/05 07:20:03;;;;;;;3.35;2.05;;;;;;;6.53;49.89;100298.41;10436832;28;20049;-72
2023/03/05 07:25:05;;;;;;;4.03;2.63;;;;;;;6.51;50.33;100289.75;10458240;28;20048;-73
2023/03/05 07:30:07;;;;;;;4.10;3.20;;;;;;;6.33;51.43;100299.66;10418134;28;20078;-72
2023/03/05 07:35:09;;;;;;;4.63;2.92;;;;;;;6.17;52.48;100281.25;10439910;28;20058;-70
2023/03/05 07:40:10;;;;;;;5.78;3.25;;;;;;;6.00;53.89;100291.09;10426404;28;20060;-73
2023/03/05 07:45:12;;;;;;;6.95;3.65;;;;;;;5.85;54.59;100273.47;10438531;28;20048;-69
2023/03/05 07:50:14;;;;;;;7.75;4.00;;;;;;;6.13;54.81;100290.34;10431830;28;20051;-71
2023/03/05 07:55:16;;;;;;;6.22;4.43;;;;;;;6.01;55.39;100284.00;10435467;28;20054;-69
2023/03/05 08:00:18;;;;;;;8.32;4.30;;;;;;;6.22;55.25;100289.75;10435591;28;20048;-68
2023/03/05 08:05:19;;;;;;;7.32;4.93;;;;;;;5.80;56.25;100272.91;10437028;28;20506;-69
2023/03/05 08:10:21;;;;;;;7.03;4.28;;;;;;;5.86;56.37;100272.53;10431813;28;20052;-70
2023/03/05 08:15:22;;;;;;;8.40;4.85;;;;;;;6.05;56.01;100282.00;10437545;28;20491;-74
2023/03/05 08:20:24;;;;;;;8.82;5.07;;;;;;;6.03;55.63;100274.19;10435188;28;20074;-72
2023/03/05 08:25:27;;;;;;;8.25;5.85;;;;;;;6.00;55.49;100259.38;10418616;28;20056;-72
2023/03/05 08:30:28;;;;;;;8.55;5.78;;;;;;;5.96;55.74;100257.84;10431446;28;20052;-70
2023/03/05 08:35:29;;;;;;;6.35;4.82;;;;;;;6.18;55.02;100259.16;10431093;28;20691;-70
2023/03/05 08:40:31;;;;;;;7.18;5.40;;;;;;;6.43;55.17;100270.88;10412506;28;20138;-72
2023/03/05 08:45:33;;;;;;;8.07;6.13;;;;;;;6.38;54.71;100250.00;10430762;28;20127;-74
2023/03/05 08:50:35;;;;;;;7.90;5.80;;;;;;;6.32;55.33;100259.16;10427975;28;20106;-70
2023/03/05 08:55:39;;;;;;;;;;;;;;;6.33;55.50;100257.38;10429055;28;20055;-72
2023/03/05 09:00:41;;;;;;;6.70;5.15;;;;;;;6.54;55.10;100260.44;10428894;28;19924;-71
2023/03/05 09:05:42;;;;;;;6.50;5.07;;;;;;;6.45;54.73;100230.16;10426184;28;20419;-70
2023/03/05 09:10:44;;;;;;;7.10;5.50;;;;;;;6.69;53.69;100240.94;10427993;28;21010;-73
2023/03/05 09:15:53;;;;;;;6.10;5.07;;;;;;;6.70;52.63;100231.22;10425384;28;20189;-74
2023/03/05 09:20:55;;;;;;;8.20;5.97;;;;;;;6.63;52.25;100214.91;10410979;28;20044;-71
2023/03/05 09:25:57;;;;;;;9.98;4.90;;;;;;;6.40;52.02;100228.75;10431539;28;20048;-67
2023/03/05 09:31:03;;;;;;;7.25;5.43;;;;;;;6.06;52.89;100233.50;10417008;28;20045;-72
2023/03/05 09:36:15;;;;;;;6.30;5.32;;;;;;;6.44;52.41;100231.13;10417118;28;20053;-70
2023/03/05 09:41:47;;;;;;;6.68;4.97;;;;;;;6.56;51.89;100226.84;10415526;28;20048;-70
2023/03/05 09:47:17;;;;;;;8.57;5.32;;;;;;;6.33;51.65;100197.41;10433094;28;20048;-68
2023/03/05 09:52:33;;;;;;;7.28;5.10;;;;;;;6.63;51.41;100212.25;10433444;28;20056;-70
2023/03/05 09:57:40;;;;;;;7.10;5.75;;;;;;;6.80;51.58;100211.16;10452749;28;20050;-67
2023/03/05 10:02:50;;;;;;;7.63;5.15;;;;;;;6.93;51.34;100205.91;10453382;28;20051;-69
2023/03/05 10:08:00;;;;;;;7.60;5.93;;;;;;;7.01;50.81;100193.03;10429675;28;20139;-67
2023/03/05 10:13:10;;;;;;;10.90;5.40;;;;;;;7.15;49.83;100193.91;10414037;28;20062;-67
2023/03/05 10:18:31;;;;;;;9.55;6.05;;;;;;;7.27;49.02;100198.38;10442121;28;20131;-73
2023/03/05 10:23:48;;;;;;;8.27;6.78;;;;;;;7.15;48.69;100180.66;10441984;28;20056;-72
2023/03/05 10:29:12;;;;;;;8.75;6.10;;;;;;;7.26;48.78;100146.34;10420285;28;20055;-71
2023/03/05 10:34:21;;;;;;;9.32;5.57;;;;;;;7.46;48.55;100176.78;10436348;28;20041;-71
2023/03/05 10:39:45;;;;;;;8.25;5.70;;;;;;;7.53;48.28;100163.94;10440420;28;20159;-73
2023/03/05 10:44:51;;;;;;;7.45;5.38;;;;;;;7.26;48.34;100164.88;10437603;28;20059;-73
2023/03/05 10:49:55;;;;;;;7.63;5.65;;;;;;;7.10;49.25;100156.28;10421968;28;20059;-73
2023/03/05 10:54:57;;;;;;;7.50;5.20;;;;;;;7.06;49.07;100164.44;10429311;28;20068;-73
2023/03/05 11:00:04;;;;;;;9.25;5.22;;;;;;;7.05;49.52;100162.72;10437306;28;20999;-73
2023/03/05 11:05:38;;;;;;;7.32;5.70;;;;;;;6.97;52.29;100148.34;10419795;28;20789;-72
2023/03/05 11:10:39;;;;;;;10.85;6.28;;;;;;;7.04;50.26;100152.25;10438619;28;20071;-73
2023/03/05 11:15:41;;;;;;;7.30;5.03;;;;;;;6.92;50.42;100146.00;10436921;28;20044;-74
2023/03/05 11:20:42;;;;;;;20.38;11.35;;;;;;;7.01;50.84;100148.03;10439038;28;20076;-75
2023/03/05 11:25:56;;;;;;;12.70;7.90;;;;;;;7.00;50.60;100142.84;10423064;28;20139;-70
2023/03/05 11:31:06;;;;;;;9.63;6.43;;;;;;;6.84;50.77;100129.78;10432788;28;20056;-67
2023/03/05 11:36:12;;;;;;;7.97;6.43;;;;;;;6.74;51.47;100132.22;10435750;28;20044;-71
2023/03/05 11:41:15;;;;;;;11.65;7.00;;;;;;;6.56;52.47;100107.81;10415211;28;20056;-72
2023/03/05 11:46:18;;;;;;;8.82;5.90;;;;;;;6.73;52.51;100104.06;10430053;28;20055;-69
2023/03/05 11:51:39;;;;;;;7.72;5.95;;;;;;;6.75;52.56;100096.00;10431424;28;20057;-71
2023/03/05 11:56:43;;;;;;;6.80;5.32;;;;;;;6.82;51.91;100081.44;10432414;28;20048;-72
2023/03/05 12:01:51;;;;;;;10.20;5.80;;;;;;;6.80;51.69;100078.88;10436316;28;20175;-74
2023/03/05 12:07:00;;;;;;;6.43;4.53;;;;;;;6.99;51.39;100083.75;10422076;28;20067;-73
2023/03/05 12:12:34;;;;;;;6.70;4.50;;;;;;;6.83;51.50;100022.25;10461383;28;20106;-73
2023/03/05 12:18:13;;;;;;;7.68;5.40;;;;;;;7.28;50.23;100057.09;10465818;28;20658;-74
2023/03/05 12:23:20;;;;;;;8.93;4.90;;;;;;;7.40;49.83;100044.75;10475974;28;20054;-72
2023/03/05 12:28:27;;;;;;;8.77;5.15;;;;;;;7.82;48.55;100052.41;10472159;28;20078;-71
2023/03/05 12:33:38;;;;;;;10.80;5.88;;;;;;;7.88;48.67;100039.59;10436500;28;20141;-71
2023/03/05 12:38:40;;;;;;;7.97;5.70;;;;;;;7.93;48.30;100026.81;10440357;28;20135;-72
2023/03/05 12:43:42;;;;;;;8.77;5.20;;;;;;;7.64;48.89;100021.00;10429911;28;20052;-71
2023/03/05 12:48:44;;;;;;;5.90;4.28;;;;;;;7.48;48.64;100012.47;10413878;28;20637;-73
2023/03/05 12:53:49;;;;;;;6.10;4.53;;;;;;;7.40;48.37;100008.56;10437780;28;20059;-72
2023/03/05 12:58:55;;;;;;;6.75;4.35;;;;;;;7.47;47.87;100000.16;10434179;28;20044;-71
2023/03/05 13:04:00;;;;;;;6.18;4.78;;;;;;;7.54;48.68;99990.84;10436590;28;20036;-74
2023/03/05 13:09:04;;;;;;;6.60;4.82;;;;;;;7.61;49.13;99984.97;10421931;28;20090;-72
2023/03/05 13:14:29;;;;;;;6.68;4.28;;;;;;;7.88;48.17;99988.38;10434307;28;20047;-74
2023/03/05 13:19:32;;;;;;;5.38;3.53;;;;;;;7.78;46.93;99959.91;10414892;28;20052;-73
2023/03/05 13:24:33;;;;;;;6.20;3.63;;;;;;;7.85;47.15;99970.03;10435987;28;20056;-72
2023/03/05 13:29:49;;;;;;;5.65;3.58;;;;;;;7.83;47.41;99971.97;10437967;28;20307;-73
2023/03/05 13:34:55;;;;;;;5.68;4.18;;;;;;;7.73;47.04;99951.44;10456849;28;20044;-73
2023/03/05 13:40:06;;;;;;;4.90;3.35;;;;;;;7.70;47.23;99956.97;10457043;28;20052;-74
2023/03/05 13:45:26;;;;;;;4.35;3.38;;;;;;;7.54;46.71;99945.81;10455417;28;20566;-74
2023/03/05 13:50:32;;;;;;;4.75;2.72;;;;;;;7.76;47.45;99945.94;10430793;28;21223;-73
2023/03/05 13:55:34;;;;;;;2.20;1.58;;;;;;;7.53;46.06;99930.88;10457858;28;20169;-73
2023/03/05 14:00:37;;;;;;;2.85;1.70;;;;;;;7.48;45.90;99935.66;10455980;28;20105;-74
2023/03/05 14:05:43;;;;;;;4.38;2.70;;;;;;;7.59;46.95;99919.81;10442159;28;20097;-78
2023/03/05 14:10:45;;;;;;;4.47;2.63;;;;;;;7.65;47.15;99911.41;10457755;28;20060;-76
2023/03/05 14:16:23;;;;;;;4.22;2.47;;;;;;;7.39;46.51;99869.16;10454347;28;20067;-75
2023/03/05 14:21:42;;;;;;;2.03;1.58;;;;;;;7.66;46.45;99891.91;10393020;28;20044;-74
2023/03/05 14:26:52;;;;;;;3.60;2.25;;;;;;;7.55;46.94;99894.50;10439559;28;20075;-75
2023/03/05 14:32:06;;;;;;;3.42;2.30;;;;;;;7.58;46.82;99895.16;10431273;28;20056;-74
2023/03/05 14:37:30;;;;;;;4.30;2.50;;;;;;;7.38;47.20;99878.06;10448671;28;20059;-75
2023/03/05 14:42:32;;;;;;;3.10;2.00;;;;;;;7.26;47.75;99861.25;10450968;28;20173;-74
2023/03/05 14:47:34;;;;;;;4.82;3.55;;;;;;;7.37;47.86;99875.50;10450665;28;20818;-75
2023/03/05 14:52:35;;;;;;;3.95;3.00;;;;;;;7.24;48.02;99819.97;10436847;28;20152;-76
2023/03/05 14:57:37;;;;;;;3.95;1.90;;;;;;;7.51;47.86;99842.75;10448816;28;20117;-72
2023/03/05 15:02:38;;;;;;;4.22;3.08;;;;;;;7.36;48.02;99820.88;10461723;28;20122;-74
2023/03/05 15:07:40;;;;;;;4.10;2.92;;;;;;;7.39;48.89;99847.97;10459940;28;20051;-74
2023/03/05 15:12:43;;;;;;;3.42;1.90;;;;;;;7.36;48.19;99816.41;10448740;28;20497;-74
2023/03/05 15:17:46;;;;;;;5.18;2.67;;;;;;;7.15;48.51;99812.72;10442074;28;20052;-75
2023/03/05 15:22:48;;;;;;;3.85;2.65;;;;;;;7.28;48.76;99817.94;10444968;28;20476;-75
2023/03/05 15:27:50;;;;;;;3.80;1.70;;;;;;;7.29;48.00;99812.53;10441051;28;20075;-76
2023/03/05 15:32:53;;;;;;;4.40;2.47;;;;;;;7.15;48.04;99792.38;10466017;28;20575;-76
2023/03/05 15:37:55;;;;;;;2.65;1.52;;;;;;;7.13;48.45;99798.72;10463425;28;20061;-73
2023/03/05 15:42:58;;;;;;;4.25;1.83;;;;;;;7.19;48.73;99804.44;10446726;28;20048;-75
2023/03/05 15:48:00;;;;;;;5.72;2.92;;;;;;;6.95;49.45;99791.22;10437665;28;20056;-73
2023/03/05 15:53:01;;;;;;;5.95;2.88;;;;;;;7.04;49.17;99792.31;10423941;28;20561;-73
2023/03/05 15:58:03;;;;;;;3.50;2.75;;;;;;;7.14;49.45;99788.03;10439130;28;20808;-73
2023/03/05 16:03:10;;;;;;;4.05;2.95;;;;;;;7.06;49.71;99779.81;10437669;28;20984;-74
2023/03/05 16:08:11;;;;;;;7.60;5.75;;;;;;;6.98;49.69;99767.16;10439861;28;20045;-74
2023/03/05 16:13:16;;;;;;;6.18;3.80;;;;;;;7.13;49.84;99773.13;10422700;28;20158;-74
2023/03/05 16:18:21;;;;;;;7.53;4.70;;;;;;;7.17;49.69;99773.75;10441063;28;20060;-74
2023/03/05 16:23:22;;;;;;;5.38;3.15;;;;;;;7.22;49.79;99771.56;10423889;28;20049;-74
2023/03/05 16:28:24;;;;;;;7.18;3.80;;;;;;;7.12;49.40;99736.19;10440102;28;20533;-74
2023/03/05 16:33:25;;;;;;;7.30;4.70;;;;;;;7.05;49.67;99755.16;10422441;28;20063;-74
2023/03/05 16:38:27;;;;;;;5.95;3.92;;;;;;;6.85;49.71;99706.34;10439333;28;20582;-74
2023/03/05 16:43:28;;;;;;;7.15;4.05;;;;;;;7.10;49.50;99752.19;10438490;28;20056;-73
2023/03/05 16:48:29;;;;;;;4.47;2.90;;;;;;;7.00;49.51;99752.00;10435383;28;20049;-73
2023/03/05 16:53:31;;;;;;;5.32;3.80;;;;;;;6.97;50.08;99752.22;10431129;28;20056;-74
2023/03/05 16:58:34;;;;;;;5.70;4.28;;;;;;;6.86;49.70;99731.84;10414661;28;21037;-74
2023/03/05 17:03:40;;;;;;;5.40;3.58;;;;;;;6.81;49.94;99725.22;10435437;28;20044;-73
2023/03/05 17:08:43;;;;;;;4.13;3.50;;;;;;;6.98;50.28;99742.47;10447111;28;20059;-74
2023/03/05 17:13:44;;;;;;;6.93;4.03;;;;;;;6.94;50.44;99741.88;10451299;28;20431;-74
2023/03/05 17:18:49;;;;;;;6.10;5.28;;;;;;;6.89;50.47;99742.22;10449941;28;20100;-75
2023/03/05 17:23:50;;;;;;;5.22;4.20;;;;;;;6.87;50.38;99724.75;10450895;28;20553;-75
2023/03/05 17:28:52;;;;;;;8.18;3.58;;;;;;;6.80;50.71;99718.22;10466811;28;20052;-76
2023/03/05 17:33:55;;;;;;;5.45;3.53;;;;;;;6.90;50.80;99740.41;10479890;28;20056;-75
2023/03/05 17:38:56;;;;;;;4.90;3.53;;;;;;;6.71;51.04;99725.03;10454669;28;20052;-74
2023/03/05 17:43:58;;;;;;;7.60;3.45;;;;;;;6.75;50.77;99730.94;10454114;28;20051;-74
2023/03/05 17:49:00;;;;;;;6.10;3.97;;;;;;;6.68;51.57;99712.88;10450415;28;20322;-74
2023/03/05 17:54:01;;;;;;;6.22;4.15;;;;;;;6.87;51.65;99736.16;10454804;28;20056;-74
2023/03/05 17:59:02;;;;;;;5.32;3.83;;;;;;;6.66;52.77;99716.59;10493700;28;20052;-75
2023/03/05 18:04:04;;;;;;;4.88;3.83;;;;;;;6.80;52.85;99716.44;10516050;28;20055;-73
2023/03/05 18:09:06;;;;;;;6.03;4.20;;;;;;;6.79;53.03;99705.97;10452901;28;20056;-70
2023/03/05 18:14:07;;;;;;;6.30;4.57;;;;;;;6.96;52.72;99720.59;10429673;28;20061;-71
2023/03/05 18:19:09;;;;;;;6.90;4.90;;;;;;;6.95;52.76;99713.59;10440381;28;20052;-71
2023/03/05 18:24:11;;;;;;;5.82;4.53;;;;;;;6.91;52.78;99694.47;10424658;28;20052;-71
2023/03/05 18:29:12;;;;;;;6.07;4.00;;;;;;;6.91;52.43;99699.78;10424099;28;20054;-70
2023/03/05 18:34:14;;;;;;;6.07;4.65;;;;;;;6.87;52.19;99699.13;10424172;28;20045;-72
2023/03/05 18:39:17;;;;;;;5.85;3.90;;;;;;;6.88;52.00;99702.66;10447462;28;20059;-71
2023/03/05 18:44:18;;;;;;;6.50;4.75;;;;;;;6.73;51.60;99692.22;10440272;28;20569;-73
2023/03/05 18:49:21;;;;;;;6.00;4.32;;;;;;;6.66;51.99;99675.09;10433217;28;22316;-71
2023/03/05 18:54:22;;;;;;;7.93;4.65;;;;;;;6.70;51.69;99679.22;10434744;28;20068;-72
2023/03/05 18:59:25;;;;;;;7.05;4.32;;;;;;;6.73;51.63;99679.00;10434457;28;20140;-72
2023/03/05 19:04:26;;;;;;;6.25;4.13;;;;;;;6.67;51.71;99675.97;10436034;28;20060;-72
2023/03/05 19:09:47;;;;;;;6.65;4.80;;;;;;;6.58;51.30;99676.66;10435205;28;20056;-72
2023/03/05 19:14:49;;;;;;;7.88;4.93;;;;;;;6.63;51.71;99664.75;10413130;28;21035;-72
2023/03/05 19:19:52;;;;;;;7.15;4.03;;;;;;;6.53;51.52;99658.44;10435773;28;20048;-71
2023/03/05 19:24:54;;;;;;;7.28;4.82;;;;;;;6.61;51.72;99656.09;10408378;28;20045;-70
2023/03/05 19:29:55;;;;;;;6.13;4.45;;;;;;;6.71;51.75;99677.41;10435438;28;20189;-71
2023/03/05 19:34:59;;;;;;;8.38;4.90;;;;;;;6.57;51.78;99659.09;10435967;28;20053;-72
2023/03/05 19:40:01;;;;;;;7.47;5.60;;;;;;;6.62;52.10;99668.38;10439388;28;20060;-73
2023/03/05 19:45:02;;;;;;;7.07;5.53;;;;;;;6.53;52.22;99647.88;10437677;28;20219;-70
2023/03/05 19:50:04;;;;;;;7.40;5.13;;;;;;;6.52;51.86;99641.75;10429123;28;20052;-72
2023/03/05 19:55:09;;;;;;;8.53;5.97;;;;;;;6.45;52.21;99644.97;10415190;28;20059;-71
2023/03/05 20:00:11;;;;;;;9.20;6.25;;;;;;;6.46;52.44;99641.38;10445461;28;20291;-74
2023/03/05 20:05:15;;;;;;;9.27;6.85;;;;;;;6.25;52.65;99597.03;10447135;28;20097;-72
2023/03/05 20:10:16;;;;;;;10.90;6.68;;;;;;;6.50;52.70;99625.16;10434119;28;20182;-72
2023/03/05 20:15:21;;;;;;;11.70;6.38;;;;;;;6.64;52.78;99637.34;10430510;28;20056;-71
2023/03/05 20:20:23;;;;;;;7.15;5.53;;;;;;;6.66;52.41;99627.50;10401661;28;20052;-70
2023/03/05 20:25:24;;;;;;;7.85;5.53;;;;;;;6.67;52.51;99634.47;10428619;28;20095;-67
2023/03/05 20:30:29;;;;;;;8.50;5.78;;;;;;;6.57;52.12;99609.66;10432173;28;20147;-66
2023/03/05 20:35:30;;;;;;;8.63;5.50;;;;;;;6.55;53.83;99620.38;10410219;28;20675;-69
2023/03/05 20:40:32;;;;;;;8.93;5.40;;;;;;;6.44;52.87;99604.47;10414991;28;20078;-68
2023/03/05 20:45:34;;;;;;;6.82;5.25;;;;;;;6.56;52.51;99615.94;10437557;28;20079;-66
2023/03/05 20:50:36;;;;;;;7.07;5.35;;;;;;;6.60;52.34;99611.25;10435338;28;20056;-68
2023/03/05 20:55:37;;;;;;;7.85;5.75;;;;;;;6.50;52.43;99597.84;10435305;28;20872;-69
2023/03/05 21:00:39;;;;;;;7.80;5.88;;;;;;;6.48;52.79;99586.56;10438003;28;20056;-68
2023/03/05 21:05:41;;;;;;;9.40;5.95;;;;;;;6.52;52.67;99590.69;10436800;28;20547;-67
2023/03/05 21:10:42;;;;;;;9.32;5.70;;;;;;;6.56;52.97;99589.50;10443824;28;20060;-68
2023/03/05 21:15:44;;;;;;;7.43;5.57;;;;;;;6.50;52.99;99579.34;10425602;28;20701;-68
2023/03/05 21:20:45;;;;;;;8.57;5.90;;;;;;;6.48;53.26;99574.19;10425117;28;20105;-68
2023/03/05 21:25:47;;;;;;;8.85;5.72;;;;;;;6.34;53.19;99553.22;10431942;28;20048;-70
2023/03/05 21:30:51;;;;;;;8.95;6.10;;;;;;;6.40;53.51;99573.09;10433355;28;20709;-68
2023/03/05 21:35:55;;;;;;;5.07;4.07;;;;;;;6.40;53.46;99575.72;10413059;28;20053;-67
2023/03/05 21:40:57;;;;;;;8.20;6.63;;;;;;;6.42;53.74;99571.16;10419197;28;21183;-70
2023/03/05 21:46:01;;;;;;;8.00;6.00;;;;;;;6.17;53.78;99525.38;10427082;28;20662;-69
2023/03/05 21:51:07;;;;;;;7.87;6.00;;;;;;;6.39;53.78;99547.59;10430018;28;20278;-68
2023/03/05 22:01:19;;;;;;;7.63;5.88;;;;;;;6.33;53.96;99527.75;10434573;28;20499;-68
2023/03/05 22:06:21;;;;;;;8.13;6.38;;;;;;;6.34;53.94;99530.25;10435317;28;20596;-66
2023/03/05 22:11:22;;;;;;;7.80;5.78;;;;;;;6.28;54.05;99503.47;10414716;28;20139;-68
2023/03/05 22:16:25;;;;;;;9.73;6.35;;;;;;;6.31;54.36;99506.72;10432966;28;20062;-68
2023/03/05 22:21:28;;;;;;;8.65;6.57;;;;;;;6.30;54.41;99496.25;10437438;28;20048;-69
2023/03/05 22:26:38;;;;;;;7.85;6.50;;;;;;;6.29;54.21;99492.78;10436662;28;20067;-68
2023/03/05 22:31:39;;;;;;;8.65;6.40;;;;;;;6.06;54.35;99457.47;10437757;28;20149;-69
2023/03/05 22:36:41;;;;;;;9.63;6.18;;;;;;;6.19;54.36;99475.91;10441450;28;20044;-69
2023/03/05 22:41:43;;;;;;;6.32;5.43;;;;;;;6.04;54.76;99466.50;10434839;28;20527;-69
2023/03/05 22:46:44;;;;;;;9.45;5.43;;;;;;;6.15;54.71;99469.16;10434700;28;20051;-69
2023/03/05 22:51:45;;;;;;;8.02;5.40;;;;;;;6.16;54.78;99455.00;10434111;28;20063;-67
2023/03/05 22:56:47;;;;;;;8.57;6.15;;;;;;;6.13;54.72;99463.16;10430320;28;20116;-68
2023/03/05 23:01:48;;;;;;;5.90;5.30;;;;;;;6.08;54.33;99458.22;10431895;28;20068;-69
2023/03/05 23:06:49;;;;;;;6.72;5.80;;;;;;;6.04;54.75;99445.34;10437911;28;20573;-69
2023/03/05 23:11:51;;;;;;;5.93;5.10;;;;;;;5.88;54.72;99425.31;10437718;28;20158;-69
2023/03/05 23:16:52;;;;;;;5.93;5.38;;;;;;;5.82;55.23;99431.06;10434179;28;20066;-70
2023/03/05 23:21:54;;;;;;;6.63;5.20;;;;;;;5.76;55.10;99410.38;10416382;28;20086;-67
2023/03/05 23:26:55;;;;;;;6.55;5.80;;;;;;;5.83;55.07;99416.91;10420160;28;20337;-70
2023/03/05 23:31:56;;;;;;;7.05;4.75;;;;;;;5.79;54.93;99426.00;10430816;28;20040;-68
2023/03/05 23:36:59;;;;;;;7.40;5.32;;;;;;;5.59;55.06;99407.19;10430770;28;20052;-68
2023/03/05 23:42:00;;;;;;;5.47;4.32;;;;;;;5.72;55.12;99424.75;10431787;28;20196;-70
2023/03/05 23:47:01;;;;;;;5.25;4.65;;;;;;;5.62;55.16;99379.72;10420362;28;20161;-71